Data for 10/01/2015

Time Sea-Level Adjusted Pressure Absolute Pressure Temperature Relative Humidity Dew Point   
(mb) (inHg) (mb) (inHg) (C) (F) (%) (C) (F)
00:05 1020 30.12 849 25.07 17.7 63.8 20 -5.2 22.7
00:10 1020 30.12 849 25.07 17.6 63.7 20 -5.3 22.4
00:15 1019 30.09 849 25.07 17.5 63.6 21 -5.1 22.8
00:20 1020 30.12 849 25.07 17.4 63.2 21 -5.1 22.7
00:25 1020 30.12 849 25.07 17.2 62.9 21 -5 23
00:30 1020 30.12 849 25.07 17 62.5 21 -5.2 22.7
00:35 1020 30.12 849 25.07 16.9 62.5 21 -5.3 22.4
00:40 1020 30.12 849 25.07 17 62.6 22 -5.1 22.9
00:45 1020 30.12 849 25.07 16.9 62.4 22 -5.1 22.9
00:50 1020 30.12 849 25.07 16.8 62.3 21 -5.3 22.5
00:55 1020 30.12 849 25.07 16.8 62.3 22 -5.2 22.7
01:00 1020 30.12 849 25.07 16.7 62.1 22 -5.2 22.7
01:05 1020 30.12 849 25.07 16.6 61.9 22 -5.2 22.7
01:10 1020 30.12 849 25.07 16.6 61.9 22 -5.2 22.6
01:15 1020 30.12 849 25.07 16.7 62 21 -5.4 22.3
01:20 1020 30.12 849 25.07 16.7 62.1 22 -5.2 22.6
01:25 1020 30.12 849 25.07 16.6 61.8 22 -5.1 22.8
01:30 1020 30.12 849 25.07 16.4 61.5 22 -5.3 22.5
01:35 1020 30.12 849 25.07 16.5 61.8 21 -5.5 22.1
01:40 1020 30.12 849 25.07 16.6 61.8 22 -5.3 22.4
01:45 1020 30.12 849 25.07 16.5 61.7 22 -5.4 22.2
01:50 1020 30.12 849 25.07 16.5 61.7 22 -5.4 22.2
01:55 1020 30.12 849 25.07 16.6 61.8 22 -5.4 22.2
02:00 1020 30.12 849 25.07 16.6 61.8 22 -5.4 22.2
02:05 1020 30.12 849 25.07 16.6 61.8 22 -5.4 22.3
02:10 1020 30.12 849 25.07 16.6 61.8 22 -5.4 22.2
02:15 1020 30.12 849 25.07 16.6 61.8 21 -5.7 21.8
02:20 1020 30.12 849 25.07 16.7 62 21 -5.6 21.9
02:25 1020 30.12 849 25.07 16.7 62 21 -5.6 21.9
02:30 1020 30.12 849 25.07 16.7 62 21 -5.8 21.6
02:35 1020 30.12 849 25.07 16.7 62.1 21 -5.6 21.9
02:40 1020 30.12 849 25.07 16.6 61.9 21 -5.5 22
02:45 1020 30.12 849 25.07 16.5 61.7 21 -5.5 22
02:50 1020 30.12 849 25.07 16.4 61.6 22 -5.5 22.1
02:55 1020 30.12 850 25.1 16.3 61.4 22 -5.4 22.3
03:00 1020 30.12 850 25.1 16.3 61.3 22 -5.5 22.1
03:05 1020 30.12 850 25.1 16.2 61.2 22 -5.5 22.2
03:10 1020 30.12 850 25.1 16.3 61.3 22 -5.4 22.3
03:15 1020 30.12 850 25.1 16.3 61.3 22 -5.6 21.9
03:20 1020 30.12 850 25.1 16.3 61.3 22 -5.6 21.9
03:25 1020 30.12 850 25.1 16.3 61.3 22 -5.6 21.9
03:30 1020 30.12 850 25.1 16.2 61.2 22 -5.7 21.7
03:35 1020 30.12 850 25.1 16.2 61.2 22 -5.6 22
03:40 1020 30.12 850 25.1 16.1 61.1 22 -5.7 21.7
03:45 1020 30.12 850 25.1 16.1 61.1 22 -5.6 22
03:50 1020 30.12 850 25.1 16.1 60.9 22 -5.7 21.7
03:55 1020 30.12 850 25.1 16.1 60.9 22 -5.8 21.6
04:00 1020 30.12 850 25.1 16.1 60.9 22 -5.6 21.9
04:05 1021 30.15 850 25.1 16.1 60.9 22 -5.8 21.6
04:10 1021 30.15 850 25.1 16.2 61.1 21 -5.8 21.6
04:15 1021 30.15 850 25.1 16.1 61 22 -5.7 21.7
04:20 1021 30.15 850 25.1 16.1 61 21 -5.9 21.5
04:25 1020 30.12 850 25.1 16.1 61 21 -5.9 21.5
04:30 1020 30.12 850 25.1 16.2 61.2 21 -6 21.2
04:35 1020 30.12 850 25.1 16.2 61.1 22 -5.6 21.8
04:40 1020 30.12 850 25.1 16.1 61 22 -5.7 21.7
04:45 1020 30.12 850 25.1 16 60.8 22 -5.7 21.7
04:50 1020 30.12 850 25.1 15.9 60.6 22 -5.7 21.7
04:55 1020 30.12 850 25.1 15.9 60.6 22 -5.7 21.7
05:00 1020 30.12 850 25.1 15.9 60.6 22 -5.7 21.8
05:05 1020 30.12 850 25.1 15.8 60.5 22 -6 21.3
05:10 1020 30.12 850 25.1 15.9 60.7 22 -5.8 21.5
05:15 1021 30.15 850 25.1 16 60.7 22 -5.8 21.6
05:20 1021 30.15 850 25.1 15.9 60.7 22 -5.9 21.4
05:25 1021 30.15 850 25.1 15.9 60.7 22 -5.8 21.6
05:30 1021 30.15 850 25.1 15.9 60.6 22 -5.7 21.7
05:35 1021 30.15 850 25.1 15.8 60.5 22 -5.6 22
05:40 1021 30.15 850 25.1 15.7 60.2 23 -5.4 22.3
05:45 1021 30.15 850 25.1 15.6 60 24 -5 22.9
05:50 1021 30.15 850 25.1 15.4 59.6 24 -5 23
05:55 1021 30.15 850 25.1 15.3 59.5 24 -4.9 23.1
06:00 1021 30.15 850 25.1 15.3 59.5 23 -5.4 22.3
06:05 1021 30.15 850 25.1 15.4 59.8 23 -5.4 22.2
06:10 1021 30.15 850 25.1 15.4 59.7 24 -5.2 22.7
06:15 1021 30.15 850 25.1 15.3 59.5 24 -5.1 22.9
06:20 1021 30.15 850 25.1 15.2 59.4 24 -5.1 22.9
06:25 1021 30.15 850 25.1 15.2 59.3 25 -4.8 23.4
06:30 1021 30.15 850 25.1 15 59.1 25 -4.7 23.6
06:35 1021 30.15 850 25.1 15 58.9 25 -4.7 23.5
06:40 1021 30.15 850 25.1 15.1 59.1 25 -5 23
06:45 1021 30.15 850 25.1 15.2 59.3 25 -4.8 23.3
06:50 1021 30.15 850 25.1 15.3 59.5 25 -4.6 23.7
06:55 1021 30.15 850 25.1 15.2 59.4 26 -4.2 24.4
07:00 1021 30.15 850 25.1 15 59.1 26 -4.1 24.7
07:05 1021 30.15 850 25.1 14.9 58.8 27 -4 24.7
07:10 1021 30.15 851 25.13 14.9 58.8 26 -4.1 24.6
07:15 1021 30.15 851 25.13 15 59 26 -4.4 24.1
07:20 1021 30.15 851 25.13 15.1 59.2 26 -4.1 24.5
07:25 1021 30.15 850 25.1 15.3 59.6 25 -4.3 24.2
07:30 1021 30.15 850 25.1 15.5 60 25 -4.4 24.2
07:35 1021 30.15 850 25.1 15.6 60.2 25 -4.3 24.2
07:40 1021 30.15 850 25.1 15.6 60.1 24 -5 23.1
07:45 1021 30.15 850 25.1 15.7 60.3 23 -5.1 22.7
07:50 1021 30.15 850 25.1 15.8 60.4 24 -4.9 23.1
07:55 1021 30.15 850 25.1 15.8 60.5 23 -4.9 23.1
08:00 1021 30.15 850 25.1 15.9 60.5 23 -5 23
08:05 1021 30.15 850 25.1 16 60.7 23 -5 23
08:10 1021 30.15 850 25.1 16.1 60.9 23 -4.8 23.3
08:15 1021 30.15 850 25.1 16.1 61 24 -4.5 23.8
08:20 1021 30.15 850 25.1 16.1 61 23 -4.7 23.6
08:25 1021 30.15 850 25.1 16.2 61.1 23 -4.6 23.7
08:30 1021 30.15 850 25.1 16.2 61.2 23 -5 23
08:35 1021 30.15 851 25.13 16.2 61.2 23 -4.9 23.2
08:40 1021 30.15 851 25.13 16.3 61.3 23 -5 22.9
08:45 1022 30.18 851 25.13 16.3 61.3 24 -4.4 24.1
08:50 1022 30.18 851 25.13 16.1 61 24 -4.5 23.8
08:55 1022 30.18 851 25.13 16.1 60.9 24 -4.6 23.7
09:00 1022 30.18 851 25.13 16.1 61.1 24 -4.1 24.5
09:05 1022 30.18 851 25.13 16.2 61.2 23 -4.6 23.7
09:10 1022 30.18 851 25.13 16.3 61.3 24 -4 24.7
09:15 1022 30.18 851 25.13 16.4 61.4 24 -4.1 24.6
09:20 1022 30.18 851 25.13 16.3 61.3 24 -4.2 24.4
09:25 1022 30.18 851 25.13 16.2 61.1 25 -3.9 25.1
09:30 1022 30.18 851 25.13 16.1 60.9 26 -3.2 26.3
09:35 1022 30.18 851 25.13 16 60.8 27 -2.7 27.2
09:40 1022 30.18 851 25.13 16.1 60.9 27 -2.9 26.8
09:45 1022 30.18 851 25.13 16.2 61.1 27 -2.9 26.7
09:50 1022 30.18 851 25.13 16.3 61.3 27 -2.5 27.5
09:55 1022 30.18 851 25.13 16.3 61.3 27 -2.8 26.9
10:00 1022 30.18 851 25.13 16.2 61.1 27 -2.9 26.8
10:05 1021 30.15 851 25.13 16.1 61 28 -2.3 27.9
10:10 1021 30.15 851 25.13 16.2 61.1 28 -2.2 28.1
10:15 1021 30.15 850 25.1 16.2 61.1 28 -2.1 28.3
10:20 1021 30.15 850 25.1 16.3 61.3 28 -2.4 27.8
10:25 1021 30.15 850 25.1 16.5 61.7 27 -2.6 27.4
10:30 1021 30.15 850 25.1 16.5 61.7 26 -2.7 27.1
10:35 1021 30.15 851 25.13 16.4 61.5 27 -2.8 27
10:40 1021 30.15 851 25.13 16.2 61.2 27 -2.9 26.8
10:45 1021 30.15 851 25.13 16.2 61.2 27 -2.6 27.3
10:50 1021 30.15 851 25.13 16.1 60.9 27 -2.8 27
10:55 1021 30.15 851 25.13 16 60.9 27 -2.7 27.2
11:00 1021 30.15 851 25.13 16 60.8 27 -2.8 26.9
11:05 1021 30.15 851 25.13 16 60.8 26 -3.5 25.6
11:10 1021 30.15 850 25.1 16 60.8 25 -3.7 25.3
11:15 1021 30.15 850 25.1 16 60.8 26 -3.5 25.8
11:20 1021 30.15 850 25.1 16.1 60.9 26 -3.1 26.3
11:25 1021 30.15 851 25.13 16.1 61 26 -3.1 26.4
11:30 1021 30.15 851 25.13 16.1 61.1 26 -3.1 26.4
11:35 1021 30.15 851 25.13 16.1 61 28 -2.4 27.7
11:40 1022 30.18 851 25.13 16.1 60.9 28 -2.4 27.6
11:45 1022 30.18 851 25.13 16.1 60.9 28 -2.1 28.2
11:50 1022 30.18 851 25.13 16.1 61 28 -2.1 28.3
11:55 1022 30.18 851 25.13 16.1 61 28 -2.1 28.2
12:00 1022 30.18 851 25.13 16.1 61 31 -0.7 30.7
12:05 1022 30.18 851 25.13 15.9 60.5 34 0 32
12:10 1022 30.18 851 25.13 15.3 59.5 43 2.9 37.2
12:15 1022 30.18 851 25.13 15 59 41 2 35.5
12:20 1022 30.18 851 25.13 14.7 58.5 44 2.7 36.9
12:25 1022 30.18 851 25.13 14.5 58 42 1.8 35.3
12:30 1022 30.18 851 25.13 14.3 57.8 42 1.5 34.7
12:35 1022 30.18 851 25.13 14.4 58 46 3.1 37.6
12:40 1022 30.18 851 25.13 14.5 58 47 3.5 38.3
12:45 1022 30.18 851 25.13 14.5 58.1 50 4.1 39.5
12:50 1022 30.18 851 25.13 14.5 58.1 53 5.1 41.2
12:55 1021 30.15 851 25.13 14.6 58.3 59 6.8 44.2
13:00 1021 30.15 851 25.13 14.7 58.4 58 6.6 43.8
13:05 1021 30.15 850 25.1 14.5 58.1 52 4.7 40.4
13:10 1021 30.15 850 25.1 14.2 57.5 48 3.6 38.4
13:15 1021 30.15 850 25.1 14.1 57.4 45 2.3 36.1
13:20 1021 30.15 850 25.1 14.2 57.6 43 2.1 35.7
13:25 1021 30.15 850 25.1 14.5 58 44 2.4 36.4
13:30 1021 30.15 850 25.1 14.7 58.5 43 2.5 36.4
13:35 1021 30.15 850 25.1 15 59 43 2.5 36.5
13:40 1020 30.12 850 25.1 15.4 59.7 45 3.5 38.4
13:45 1020 30.12 849 25.07 15.9 60.5 47 4.6 40.2
13:50 1020 30.12 849 25.07 16.3 61.3 48 5.4 41.8
13:55 1020 30.12 849 25.07 15.9 60.5 52 6.2 43.1
14:00 1020 30.12 849 25.07 15.6 60 53 6 42.9
14:05 1020 30.12 849 25.07 15.7 60.2 52 5.9 42.7
14:10 1020 30.12 849 25.07 15.9 60.6 52 6.1 43
14:15 1020 30.12 849 25.07 16 60.8 51 6.1 42.9
14:20 1020 30.12 849 25.07 16.4 61.5 50 6.2 43.2
14:25 1020 30.12 849 25.07 16.4 61.6 51 6.3 43.4
14:30 1020 30.12 849 25.07 16.4 61.5 51 6.4 43.6
14:35 1020 30.12 849 25.07 16.4 61.4 51 6.3 43.4
14:40 1020 30.12 849 25.07 16.4 61.4 51 6.4 43.5
14:45 1019 30.09 849 25.07 16.5 61.6 51 6.3 43.4
14:50 1019 30.09 849 25.07 16.7 62 50 6.3 43.3
14:55 1019 30.09 849 25.07 16.8 62.3 50 6.5 43.7
15:00 1019 30.09 849 25.07 16.8 62.3 50 6.5 43.6
15:05 1019 30.09 849 25.07 16.7 62 52 6.8 44.2
15:10 1020 30.12 849 25.07 16.3 61.3 53 6.8 44.2
15:15 1019 30.09 849 25.07 16 60.7 53 6.4 43.6
15:20 1019 30.09 849 25.07 15.7 60.3 52 6.1 43
15:25 1019 30.09 849 25.07 15.5 59.9 52 5.6 42.2
15:30 1019 30.09 849 25.07 15.2 59.3 51 5.4 41.6
15:35 1019 30.09 849 25.07 14.9 58.9 52 5.3 41.5
15:40 1019 30.09 849 25.07 14.8 58.7 52 5.1 41.2
15:45 1019 30.09 849 25.07 14.8 58.6 52 5 41
15:50 1019 30.09 849 25.07 14.7 58.5 51 4.9 40.8
15:55 1019 30.09 849 25.07 14.7 58.5 50 4.5 40.2
16:00 1019 30.09 849 25.07 14.6 58.2 50 4.5 40
16:05 1019 30.09 849 25.07 14.6 58.3 48 3.9 39.1
16:10 1019 30.09 849 25.07 14.5 58.1 47 3.4 38.1
16:15 1019 30.09 849 25.07 14.6 58.3 45 2.9 37.1
16:20 1019 30.09 849 25.07 14.6 58.4 45 2.9 37.3
16:25 1020 30.12 849 25.07 14.6 58.4 44 2.7 36.9
16:30 1020 30.12 849 25.07 14.6 58.3 44 2.5 36.5
16:35 1020 30.12 849 25.07 14.5 58.2 44 2.5 36.6
16:40 1020 30.12 849 25.07 14.5 58.1 43 2.3 36.2
16:45 1020 30.12 849 25.07 14.5 58.1 43 2.1 35.8
16:50 1020 30.12 849 25.07 14.5 58 42 1.9 35.4
16:55 1019 30.09 849 25.07 14.4 57.8 42 1.7 35.1
17:00 1019 30.09 849 25.07 14.2 57.6 42 1.6 35
17:05 1019 30.09 849 25.07 14.1 57.3 43 1.7 35
17:10 1019 30.09 849 25.07 13.9 57.1 43 1.8 35.2
17:15 1019 30.09 849 25.07 13.8 56.9 44 1.9 35.4
17:20 1019 30.09 849 25.07 13.8 56.8 44 1.9 35.5
17:25 1019 30.09 849 25.07 13.8 56.8 44 2 35.5
17:30 1019 30.09 849 25.07 13.7 56.7 44 1.9 35.4
17:35 1019 30.09 849 25.07 13.6 56.5 45 1.8 35.3
17:40 1019 30.09 849 25.07 13.5 56.3 45 1.8 35.2
17:45 1019 30.09 849 25.07 13.4 56.1 45 1.7 35
17:50 1019 30.09 849 25.07 13.3 55.9 45 1.8 35.2
17:55 1019 30.09 849 25.07 13.2 55.7 45 1.6 34.9
18:00 1019 30.09 849 25.07 13.1 55.7 45 1.6 35
18:05 1019 30.09 849 25.07 13.1 55.6 45 1.5 34.7
18:10 1020 30.12 849 25.07 13.1 55.6 45 1.5 34.6
18:15 1020 30.12 849 25.07 13.1 55.6 44 1.2 34.2
18:20 1019 30.09 849 25.07 13.1 55.6 44 1.1 33.9
18:25 1019 30.09 849 25.07 13.1 55.6 44 1.2 34.2
18:30 1019 30.09 849 25.07 13.1 55.5 44 1.3 34.3
18:35 1019 30.09 849 25.07 13 55.4 45 1.4 34.5
18:40 1019 30.09 849 25.07 12.9 55.2 45 1.2 34.2
18:45 1019 30.09 849 25.07 12.9 55.2 45 1.2 34.2
18:50 1019 30.09 849 25.07 12.9 55.2 45 1.2 34.1
18:55 1019 30.09 849 25.07 12.9 55.2 45 1.2 34.2
19:00 1020 30.12 849 25.07 12.9 55.2 45 1.2 34.2
19:05 1020 30.12 849 25.07 12.8 55.1 46 1.4 34.5
19:10 1020 30.12 849 25.07 12.8 55 46 1.5 34.7
19:15 1020 30.12 849 25.07 12.7 54.9 46 1.6 34.9
19:20 1020 30.12 849 25.07 12.7 54.8 46 1.5 34.8
19:25 1020 30.12 849 25.07 12.6 54.6 47 1.6 34.9
19:30 1020 30.12 849 25.07 12.6 54.6 46 1.4 34.5
19:35 1020 30.12 849 25.07 12.6 54.7 47 1.6 34.9
19:40 1020 30.12 849 25.07 12.6 54.6 47 1.6 34.9
19:45 1020 30.12 849 25.07 12.5 54.4 47 1.7 35
19:50 1019 30.09 849 25.07 12.4 54.2 48 1.8 35.2
19:55 1020 30.12 849 25.07 12.3 54.2 48 1.7 35.1
20:00 1019 30.09 849 25.07 12.3 54.1 48 1.7 35.1
20:05 1019 30.09 849 25.07 12.2 54 49 1.8 35.3
20:10 1019 30.09 849 25.07 12.1 53.7 49 1.7 35.1
20:15 1019 30.09 849 25.07 12 53.7 49 1.7 35
20:20 1019 30.09 849 25.07 12 53.5 49 1.6 34.8
20:25 1019 30.09 849 25.07 11.9 53.4 49 1.4 34.6
20:30 1019 30.09 849 25.07 11.9 53.4 49 1.4 34.6
20:35 1019 30.09 849 25.07 11.9 53.4 48 1.4 34.5
20:40 1019 30.09 849 25.07 11.9 53.5 48 1.3 34.4
20:45 1020 30.12 849 25.07 12 53.6 48 1.3 34.4
20:50 1019 30.09 849 25.07 11.9 53.5 48 1.3 34.4
20:55 1019 30.09 849 25.07 11.9 53.5 48 1.4 34.5
21:00 1020 30.12 849 25.07 11.9 53.3 49 1.4 34.5
21:05 1019 30.09 849 25.07 11.8 53.2 48 1.3 34.4
21:10 1019 30.09 849 25.07 11.9 53.4 48 1.3 34.4
21:15 1019 30.09 849 25.07 11.9 53.4 48 1.4 34.5
21:20 1019 30.09 849 25.07 11.9 53.4 48 1.4 34.5
21:25 1019 30.09 849 25.07 11.8 53.2 49 1.5 34.7
21:30 1019 30.09 849 25.07 11.7 53 49 1.5 34.7
21:35 1019 30.09 849 25.07 11.6 52.9 50 1.6 34.9
21:40 1019 30.09 849 25.07 11.5 52.7 50 1.6 34.9
21:45 1019 30.09 849 25.07 11.5 52.6 50 1.5 34.7
21:50 1019 30.09 849 25.07 11.6 52.8 50 1.4 34.5
21:55 1019 30.09 849 25.07 11.7 53 49 1.4 34.6
22:00 1019 30.09 849 25.07 11.7 53.1 50 1.6 34.8
22:05 1019 30.09 848 25.04 11.6 52.8 50 1.7 35
22:10 1019 30.09 848 25.04 11.4 52.5 51 1.8 35.2
22:15 1019 30.09 849 25.07 11.3 52.3 52 1.7 35.1
22:20 1020 30.12 849 25.07 11.2 52.1 52 1.8 35.2
22:25 1019 30.09 849 25.07 11.1 52 52 1.8 35.2
22:30 1019 30.09 849 25.07 11 51.9 53 1.9 35.4
22:35 1019 30.09 849 25.07 10.9 51.7 54 1.9 35.4
22:40 1019 30.09 849 25.07 10.9 51.7 53 1.9 35.4
22:45 1019 30.09 849 25.07 10.9 51.6 54 2 35.5
22:50 1019 30.09 849 25.07 10.7 51.3 55 2 35.6
22:55 1019 30.09 849 25.07 10.7 51.2 55 1.9 35.5
23:00 1019 30.09 849 25.07 10.6 51.1 55 2.1 35.7
23:05 1020 30.12 849 25.07 10.5 50.9 56 2.2 35.9
23:10 1019 30.09 849 25.07 10.4 50.8 56 2.2 35.9
23:15 1020 30.12 849 25.07 10.4 50.6 57 2.2 36
23:20 1020 30.12 849 25.07 10.3 50.5 57 2.2 35.9
23:25 1019 30.09 849 25.07 10.3 50.5 57 2.3 36.1
23:30 1020 30.12 849 25.07 10.1 50.2 58 2.2 36
23:35 1020 30.12 849 25.07 9.9 49.9 58 2.1 35.8
23:40 1020 30.12 849 25.07 10 49.9 57 1.8 35.3
23:45 1020 30.12 849 25.07 10.2 50.4 55 1.6 34.9
23:50 1020 30.12 849 25.07 10.5 50.9 54 1.5 34.8
23:55 1020 30.12 849 25.07 10.7 51.2 53 1.6 34.9
24:00 1020 30.12 849 25.07 10.6 51.2 53 1.6 34.9